createdAt,value
2017-09-15T00:01:19.444Z,0.90
2017-09-15T00:03:46.872Z,1.70
2017-09-15T00:06:14.316Z,1.20
2017-09-15T00:08:41.764Z,0.90
2017-09-15T00:11:09.308Z,1.23
2017-09-15T00:13:36.753Z,1.20
2017-09-15T00:16:04.296Z,1.60
2017-09-15T00:18:31.760Z,2.60
2017-09-15T00:20:59.968Z,3.10
2017-09-15T00:23:27.408Z,1.37
2017-09-15T00:25:54.840Z,1.23
2017-09-15T00:28:22.288Z,1.50
2017-09-15T00:30:49.728Z,1.20
2017-09-15T00:33:17.173Z,1.85
2017-09-15T00:35:44.620Z,1.30
2017-09-15T00:38:12.064Z,1.57
2017-09-15T00:40:39.538Z,1.43
2017-09-15T00:43:06.984Z,1.20
2017-09-15T00:45:34.531Z,1.37
2017-09-15T00:48:01.976Z,1.55
2017-09-15T00:50:29.420Z,1.35
2017-09-15T00:52:56.864Z,1.80
2017-09-15T00:55:25.068Z,2.03
2017-09-15T00:57:52.525Z,1.52
2017-09-15T01:00:19.968Z,1.48
2017-09-15T01:02:47.412Z,1.30
2017-09-15T01:05:14.868Z,1.25
2017-09-15T01:07:42.316Z,1.70
2017-09-15T01:10:09.780Z,1.40
2017-09-15T01:12:37.227Z,1.73
2017-09-15T01:15:04.758Z,1.33
2017-09-15T01:17:32.196Z,1.33
2017-09-15T01:19:59.640Z,1.47
2017-09-15T01:22:27.089Z,2.03
2017-09-15T01:24:54.544Z,1.60
2017-09-15T01:27:22.797Z,1.60
2017-09-15T01:29:50.347Z,1.40
2017-09-15T01:32:17.786Z,1.40
2017-09-15T01:34:45.228Z,1.52
2017-09-15T01:37:12.664Z,1.62
2017-09-15T01:39:40.208Z,1.90
2017-09-15T01:42:09.167Z,1.90
2017-09-15T01:44:36.623Z,1.40
2017-09-15T01:47:04.080Z,1.58
2017-09-15T01:49:31.617Z,2.23
2017-09-15T01:51:59.049Z,1.40
2017-09-15T01:54:26.605Z,1.17
2017-09-15T01:56:54.144Z,1.33
2017-09-15T01:59:21.592Z,1.40
2017-09-15T02:01:49.063Z,1.77
2017-09-15T02:04:17.263Z,1.50
2017-09-15T02:06:44.701Z,1.37
2017-09-15T02:09:12.149Z,1.30
2017-09-15T02:11:39.600Z,2.00
2017-09-15T02:14:07.066Z,1.80
2017-09-15T02:16:34.496Z,1.40
2017-09-15T02:19:01.952Z,1.10
2017-09-15T02:21:29.404Z,1.20
2017-09-15T02:23:57.604Z,1.23
2017-09-15T02:26:25.060Z,1.55
2017-09-15T02:28:52.621Z,1.70
2017-09-15T02:31:20.078Z,1.50
2017-09-15T02:33:47.512Z,1.70
2017-09-15T02:36:14.969Z,1.50
2017-09-15T02:38:42.424Z,1.30
2017-09-15T02:41:10.672Z,2.00
2017-09-15T02:43:38.109Z,2.00
2017-09-15T02:46:05.640Z,1.20
2017-09-15T02:48:33.084Z,1.48
2017-09-15T02:51:00.557Z,1.40
2017-09-15T02:53:28.752Z,1.70
2017-09-15T02:55:56.252Z,1.23
2017-09-15T02:58:23.688Z,1.42
2017-09-15T03:00:51.125Z,1.60
2017-09-15T03:03:18.557Z,1.75
2017-09-15T03:05:46.002Z,1.58
2017-09-15T03:08:13.447Z,1.85
2017-09-15T03:10:40.896Z,1.80
2017-09-15T03:13:08.345Z,2.20
2017-09-15T03:15:35.904Z,1.70
2017-09-15T03:18:03.434Z,1.45
2017-09-15T03:20:30.868Z,1.55
2017-09-15T03:22:58.308Z,1.77
2017-09-15T03:25:25.764Z,1.70
2017-09-15T03:27:53.720Z,1.35
2017-09-15T03:30:21.226Z,1.80
2017-09-15T03:32:48.716Z,1.90
2017-09-15T03:35:16.303Z,1.92
2017-09-15T03:37:43.765Z,1.70
2017-09-15T03:40:11.226Z,1.80
2017-09-15T03:42:38.684Z,1.83
2017-09-15T03:45:06.137Z,1.90
2017-09-15T03:47:34.348Z,1.70
2017-09-15T03:50:01.802Z,2.10
2017-09-15T03:52:29.244Z,2.20
2017-09-15T03:54:56.687Z,2.40
2017-09-15T03:57:24.129Z,2.00
2017-09-15T03:59:51.592Z,2.00
2017-09-15T04:02:19.041Z,2.20
2017-09-15T04:04:46.584Z,2.80
2017-09-15T04:07:14.040Z,2.10
2017-09-15T04:09:42.284Z,2.70
2017-09-15T04:12:09.727Z,2.10
2017-09-15T04:14:37.160Z,2.10
2017-09-15T04:17:04.602Z,2.20
2017-09-15T04:19:32.045Z,1.90
2017-09-15T04:21:59.504Z,2.40
2017-09-15T04:24:26.946Z,1.75
2017-09-15T04:26:54.488Z,1.90
2017-09-15T04:29:22.028Z,2.00
2017-09-15T04:31:49.456Z,2.33
2017-09-15T04:34:16.905Z,2.08
2017-09-15T04:36:44.352Z,1.90
2017-09-15T04:39:11.796Z,1.80
2017-09-15T04:41:39.257Z,2.42
2017-09-15T04:44:07.472Z,2.60
2017-09-15T04:46:34.897Z,2.22
2017-09-15T04:49:02.344Z,2.70
2017-09-15T04:51:29.791Z,2.62
2017-09-15T04:53:57.248Z,2.33
2017-09-15T04:56:24.715Z,2.30
2017-09-15T04:58:52.161Z,3.05
2017-09-15T05:01:19.601Z,2.47
2017-09-15T05:03:47.040Z,2.60
2017-09-15T05:06:14.502Z,2.40
2017-09-15T05:08:41.936Z,2.70
2017-09-15T05:11:09.373Z,2.62
2017-09-15T05:13:36.920Z,3.20
2017-09-15T05:16:04.358Z,2.92
2017-09-15T05:18:31.795Z,2.53
2017-09-15T05:20:59.254Z,2.55
2017-09-15T05:23:27.457Z,2.95
2017-09-15T05:25:54.903Z,3.10
2017-09-15T05:28:22.345Z,2.33
2017-09-15T05:30:49.824Z,3.28
2017-09-15T05:33:17.285Z,2.50
2017-09-15T05:35:44.749Z,2.87
2017-09-15T05:38:13.108Z,2.97
2017-09-15T05:40:41.332Z,3.47
2017-09-15T05:43:08.796Z,4.12
2017-09-15T05:45:37.019Z,3.12
2017-09-15T05:48:04.458Z,3.25
2017-09-15T05:50:31.912Z,2.90
2017-09-15T05:52:59.353Z,3.15
2017-09-15T05:55:26.820Z,3.33
2017-09-15T05:57:54.269Z,3.30
2017-09-15T06:00:21.717Z,2.30
2017-09-15T06:02:50.144Z,2.60
2017-09-15T06:05:17.592Z,3.00
2017-09-15T06:07:45.036Z,3.10
2017-09-15T06:10:12.519Z,2.12
2017-09-15T06:12:40.721Z,2.30
2017-09-15T06:15:08.170Z,2.78
2017-09-15T06:17:35.625Z,2.78
2017-09-15T06:20:03.080Z,3.53
2017-09-15T06:22:30.528Z,2.40
2017-09-15T06:24:58.074Z,2.43
2017-09-15T06:27:25.623Z,2.42
2017-09-15T06:29:53.091Z,2.30
2017-09-15T06:32:21.293Z,2.83
2017-09-15T06:34:48.748Z,4.17
2017-09-15T06:37:16.200Z,2.23
2017-09-15T06:39:43.665Z,3.07
2017-09-15T06:42:11.093Z,2.20
2017-09-15T06:44:38.558Z,2.10
2017-09-15T06:47:06.764Z,2.60
2017-09-15T06:49:34.271Z,2.27
2017-09-15T06:52:02.481Z,2.17
2017-09-15T06:54:29.925Z,2.40
2017-09-15T06:56:57.368Z,2.00
2017-09-15T06:59:24.814Z,1.87
2017-09-15T07:01:52.271Z,2.10
2017-09-15T07:04:19.700Z,2.10
2017-09-15T07:06:47.140Z,1.87
2017-09-15T07:09:14.577Z,2.37
2017-09-15T07:11:42.080Z,1.80
2017-09-15T07:14:09.519Z,4.60
2017-09-15T07:16:36.965Z,2.87
2017-09-15T07:19:04.474Z,3.77
2017-09-15T07:21:31.926Z,4.70
2017-09-15T07:24:00.132Z,3.60
2017-09-15T07:26:27.588Z,1.83
2017-09-15T07:28:55.053Z,1.90
2017-09-15T07:31:22.500Z,2.03
2017-09-15T07:33:49.961Z,2.40
2017-09-15T07:36:18.170Z,2.27
2017-09-15T07:38:45.614Z,2.07
2017-09-15T07:41:13.048Z,1.43
2017-09-15T07:43:40.514Z,1.40
2017-09-15T07:46:07.952Z,1.50
2017-09-15T07:48:35.396Z,2.10
2017-09-15T07:51:02.845Z,1.60
2017-09-15T07:53:30.269Z,2.00
2017-09-15T07:55:58.649Z,2.10
2017-09-15T07:58:26.081Z,4.03
2017-09-15T08:00:53.525Z,2.30
2017-09-15T08:03:20.977Z,1.40
2017-09-15T08:05:48.438Z,1.77
2017-09-15T08:08:17.397Z,1.77
2017-09-15T08:10:44.829Z,1.80
2017-09-15T08:13:12.261Z,1.93
2017-09-15T08:15:39.699Z,1.00
2017-09-15T08:18:07.160Z,1.07
2017-09-15T08:20:34.628Z,1.20
2017-09-15T08:23:02.084Z,1.00
2017-09-15T08:25:30.344Z,1.80
2017-09-15T08:27:57.868Z,1.30
2017-09-15T08:30:25.324Z,1.30
2017-09-15T08:32:52.864Z,0.90
2017-09-15T08:35:20.395Z,1.20
2017-09-15T08:37:47.848Z,1.27
2017-09-15T08:40:15.469Z,1.30
2017-09-15T08:42:42.940Z,1.07
2017-09-15T08:45:10.372Z,3.00
2017-09-15T08:47:37.816Z,0.90
2017-09-15T08:50:05.260Z,0.90
2017-09-15T08:52:32.705Z,1.43
2017-09-15T08:55:00.165Z,3.00
2017-09-15T08:57:27.668Z,1.30
2017-09-15T08:59:55.097Z,1.67
2017-09-15T09:02:22.581Z,1.37
2017-09-15T09:04:50.027Z,1.50
2017-09-15T09:07:17.464Z,1.60
2017-09-15T09:09:45.012Z,1.77
2017-09-15T09:12:12.460Z,1.67
2017-09-15T09:14:39.920Z,1.10
2017-09-15T09:17:08.252Z,1.90
2017-09-15T09:19:35.709Z,1.33
2017-09-15T09:22:03.248Z,1.37
2017-09-15T09:24:30.788Z,0.90
2017-09-15T09:26:58.218Z,1.20
2017-09-15T09:29:25.652Z,1.40
2017-09-15T09:31:53.112Z,1.30
2017-09-15T09:34:20.552Z,1.70
2017-09-15T09:36:48.000Z,1.73
2017-09-15T09:39:15.548Z,1.40
2017-09-15T09:41:42.978Z,1.20
2017-09-15T09:44:10.444Z,1.40
2017-09-15T09:46:37.918Z,1.83
2017-09-15T09:49:05.356Z,1.20
2017-09-15T09:51:32.864Z,8.53
2017-09-15T09:54:00.424Z,5.30
2017-09-15T09:56:28.677Z,1.23
2017-09-15T09:58:56.124Z,0.90
2017-09-15T10:01:24.345Z,1.40
2017-09-15T10:03:51.786Z,1.30
2017-09-15T10:06:19.261Z,1.27
2017-09-15T10:08:46.688Z,1.10
2017-09-15T10:11:14.137Z,1.23
2017-09-15T10:13:41.581Z,0.83
2017-09-15T10:16:09.042Z,1.00
2017-09-15T10:18:36.490Z,1.00
2017-09-15T10:21:04.011Z,2.33
2017-09-15T10:23:31.449Z,1.60
2017-09-15T10:25:58.919Z,1.20
2017-09-15T10:28:26.376Z,1.00
2017-09-15T10:30:54.585Z,1.17
2017-09-15T10:33:22.158Z,1.27
2017-09-15T10:35:49.598Z,1.17
2017-09-15T10:38:17.108Z,0.73
2017-09-15T10:40:44.531Z,1.00
2017-09-15T10:43:11.967Z,1.40
2017-09-15T10:45:40.195Z,0.80
2017-09-15T10:48:07.721Z,1.17
2017-09-15T10:50:35.175Z,0.73
2017-09-15T10:53:02.716Z,1.00
2017-09-15T10:55:30.247Z,0.90
2017-09-15T10:58:03.352Z,1.50
2017-09-15T11:00:31.563Z,1.00
2017-09-15T11:02:59.011Z,1.40
2017-09-15T11:05:26.468Z,1.30
2017-09-15T11:07:53.896Z,1.10
2017-09-15T11:10:21.328Z,1.00
2017-09-15T11:12:48.768Z,1.50
2017-09-15T11:15:16.202Z,1.07
2017-09-15T11:17:43.648Z,1.30
2017-09-15T11:20:11.125Z,1.47
2017-09-15T11:22:38.614Z,0.80
2017-09-15T11:25:06.051Z,0.90
2017-09-15T11:27:33.488Z,1.07
2017-09-15T11:30:01.684Z,2.70
2017-09-15T11:32:29.117Z,1.40
2017-09-15T11:34:56.543Z,1.37
2017-09-15T11:37:23.986Z,1.20
2017-09-15T11:39:52.180Z,0.60
2017-09-15T11:42:19.644Z,0.60
2017-09-15T11:44:47.063Z,1.60
2017-09-15T11:47:14.508Z,0.80
2017-09-15T11:49:41.971Z,1.40
2017-09-15T11:52:09.407Z,1.07
2017-09-15T11:54:36.856Z,0.90
2017-09-15T11:57:04.292Z,0.73
2017-09-15T11:59:31.744Z,0.80
2017-09-15T12:01:59.183Z,0.70
2017-09-15T12:04:27.392Z,0.60
2017-09-15T12:06:54.839Z,0.90
2017-09-15T12:09:22.436Z,1.17
2017-09-15T12:11:49.978Z,1.00
2017-09-15T12:14:17.427Z,1.10
2017-09-15T12:16:44.855Z,0.90
2017-09-15T12:19:12.399Z,0.77
2017-09-15T12:21:39.833Z,0.80
2017-09-15T12:24:07.291Z,6.37
2017-09-15T12:26:34.723Z,2.17
2017-09-15T12:29:02.261Z,0.90
2017-09-15T12:31:29.675Z,0.87
2017-09-15T12:33:57.112Z,1.03
2017-09-15T12:36:24.543Z,0.80
2017-09-15T12:38:52.741Z,1.00
2017-09-15T12:41:20.180Z,1.20
2017-09-15T12:43:47.615Z,1.10
2017-09-15T12:46:15.041Z,0.90
2017-09-15T12:48:42.472Z,0.77
2017-09-15T12:51:09.899Z,1.03
2017-09-15T12:53:38.108Z,1.10
2017-09-15T12:56:05.540Z,0.93
2017-09-15T12:58:32.972Z,0.87
2017-09-15T13:01:00.403Z,2.47
2017-09-15T13:03:27.843Z,1.40
2017-09-15T13:05:56.068Z,1.40
2017-09-15T13:08:23.487Z,0.80
2017-09-15T13:10:50.948Z,0.70
2017-09-15T13:13:18.443Z,0.80
2017-09-15T13:15:45.875Z,1.20
2017-09-15T13:18:13.696Z,1.07
2017-09-15T13:20:41.115Z,3.63
2017-09-15T13:23:08.549Z,1.00
2017-09-15T13:25:35.986Z,1.80
2017-09-15T13:28:03.415Z,1.60
2017-09-15T13:30:30.849Z,1.33
2017-09-15T13:32:58.307Z,1.43
2017-09-15T13:35:25.788Z,2.87
2017-09-15T13:37:53.218Z,1.20
2017-09-15T13:40:20.753Z,2.10
2017-09-15T13:42:48.171Z,1.53
2017-09-15T13:45:15.611Z,1.43
2017-09-15T13:47:43.045Z,1.50
2017-09-15T13:50:10.508Z,1.10
2017-09-15T13:52:37.940Z,2.77
2017-09-15T13:55:05.439Z,1.17
2017-09-15T13:57:32.876Z,1.20
2017-09-15T14:00:00.312Z,1.17
2017-09-15T14:02:27.861Z,1.00
2017-09-15T14:04:55.300Z,1.53
2017-09-15T14:07:24.253Z,1.20
2017-09-15T14:09:51.688Z,3.43
2017-09-15T14:12:19.135Z,7.23
2017-09-15T14:14:46.577Z,7.03
2017-09-15T14:17:14.016Z,1.03
2017-09-15T14:19:41.447Z,0.90
2017-09-15T14:22:08.914Z,0.97
2017-09-15T14:24:36.368Z,2.20
2017-09-15T14:27:03.820Z,2.17
2017-09-15T14:29:32.030Z,2.27
2017-09-15T14:31:59.524Z,1.30
2017-09-15T14:34:26.970Z,1.70
2017-09-15T14:36:54.424Z,1.10
2017-09-15T14:39:22.628Z,0.90
2017-09-15T14:41:50.077Z,1.00
2017-09-15T14:44:17.512Z,0.97
2017-09-15T14:46:44.970Z,1.03
2017-09-15T14:49:12.413Z,1.10
2017-09-15T14:51:39.853Z,0.97
2017-09-15T14:54:07.333Z,1.10
2017-09-15T14:56:34.761Z,1.00
2017-09-15T14:59:02.209Z,0.90
2017-09-15T15:01:29.752Z,0.80
2017-09-15T15:03:57.208Z,0.90
2017-09-15T15:06:25.412Z,1.33
2017-09-15T15:08:53.292Z,1.50
2017-09-15T15:11:20.736Z,1.00
2017-09-15T15:13:48.207Z,1.23
2017-09-15T15:16:15.737Z,1.07
2017-09-15T15:18:43.176Z,1.17
2017-09-15T15:21:10.635Z,1.00
2017-09-15T15:23:38.195Z,0.90
2017-09-15T15:26:06.411Z,0.73
2017-09-15T15:28:33.888Z,1.00
2017-09-15T15:31:01.326Z,1.00
2017-09-15T15:33:29.533Z,1.07
2017-09-15T15:35:57.024Z,0.90
2017-09-15T15:38:24.597Z,0.80
2017-09-15T15:40:52.828Z,1.73
2017-09-15T15:43:20.303Z,1.70
2017-09-15T15:45:48.532Z,1.20
2017-09-15T15:48:16.788Z,1.40
2017-09-15T15:53:18.273Z,1.13
2017-09-15T15:55:45.720Z,1.00
2017-09-15T15:58:13.193Z,1.10
2017-09-15T16:00:40.644Z,1.00
2017-09-15T16:03:08.077Z,1.20
2017-09-15T16:05:35.521Z,1.07
2017-09-15T16:08:02.984Z,1.63
2017-09-15T16:10:30.424Z,1.07
2017-09-15T16:12:57.864Z,1.50
2017-09-15T16:15:25.304Z,0.90
2017-09-15T16:17:52.740Z,1.30
2017-09-15T16:20:20.188Z,1.10
2017-09-15T16:22:47.652Z,1.03
2017-09-15T16:25:15.188Z,1.10
2017-09-15T16:27:42.617Z,1.17
2017-09-15T16:30:10.067Z,1.17
2017-09-15T16:32:37.520Z,1.60
2017-09-15T16:35:05.037Z,1.50
2017-09-15T16:37:31.968Z,1.17
2017-09-15T16:40:05.056Z,1.20
2017-09-15T16:42:38.281Z,1.63
2017-09-15T16:45:11.477Z,1.73
2017-09-15T16:47:44.645Z,2.10
2017-09-15T16:50:12.088Z,1.87
2017-09-15T16:52:39.580Z,1.63
2017-09-15T16:55:07.040Z,1.77
2017-09-15T16:57:35.467Z,2.00
2017-09-15T17:00:02.890Z,1.60
2017-09-15T17:02:30.331Z,1.37
2017-09-15T17:04:57.764Z,1.57
2017-09-15T17:07:25.226Z,1.77
2017-09-15T17:09:52.680Z,1.47
2017-09-15T17:12:20.133Z,1.20
2017-09-15T17:14:47.584Z,1.37
2017-09-15T17:17:15.061Z,1.90
2017-09-15T17:19:43.304Z,1.50
2017-09-15T17:22:10.752Z,1.30
2017-09-15T17:24:38.956Z,1.47
2017-09-15T17:27:06.404Z,1.37
2017-09-15T17:29:33.836Z,1.30
2017-09-15T17:32:01.272Z,1.80
2017-09-15T17:34:28.708Z,1.60
2017-09-15T17:37:06.130Z,1.70
2017-09-15T17:39:33.684Z,1.43
2017-09-15T17:42:01.148Z,1.40
2017-09-15T17:44:29.370Z,2.70
2017-09-15T17:46:56.856Z,2.03
2017-09-15T17:49:25.065Z,1.40
2017-09-15T17:51:52.507Z,1.50
2017-09-15T17:54:19.951Z,2.00
2017-09-15T17:56:47.385Z,1.80
2017-09-15T17:59:14.868Z,1.53
2017-09-15T18:01:42.300Z,1.60
2017-09-15T18:04:09.849Z,1.50
2017-09-15T18:06:37.300Z,1.60
2017-09-15T18:09:04.777Z,1.77
2017-09-15T18:11:32.993Z,1.83
2017-09-15T18:14:00.497Z,1.83
2017-09-15T18:16:28.003Z,2.50
2017-09-15T18:18:56.216Z,2.10
2017-09-15T18:21:23.654Z,2.13
2017-09-15T18:23:51.092Z,1.67
2017-09-15T18:26:18.540Z,5.80
2017-09-15T18:28:46.060Z,18.33
2017-09-15T18:31:13.524Z,3.33
2017-09-15T18:33:40.956Z,1.90
2017-09-15T18:36:08.390Z,3.20
2017-09-15T18:38:35.837Z,2.70
2017-09-15T18:41:03.281Z,2.20
2017-09-15T18:43:30.772Z,3.00
2017-09-15T18:45:58.217Z,3.10
2017-09-15T18:48:25.770Z,3.67
2017-09-15T18:50:53.204Z,4.50
2017-09-15T18:53:21.477Z,3.83
2017-09-15T18:55:49.001Z,4.10
2017-09-15T18:58:16.450Z,4.30
2017-09-15T19:00:44.668Z,4.00
2017-09-15T19:03:12.127Z,4.70
2017-09-15T19:05:39.596Z,4.90
2017-09-15T19:08:07.041Z,4.00
2017-09-15T19:10:34.480Z,3.83
2017-09-15T19:13:01.912Z,3.70
2017-09-15T19:15:29.348Z,4.10
2017-09-15T19:17:56.787Z,5.20
2017-09-15T19:20:24.228Z,4.50
2017-09-15T19:22:51.660Z,4.30
2017-09-15T19:25:19.110Z,4.10
2017-09-15T19:27:46.570Z,3.47
2017-09-15T19:30:13.997Z,3.90
2017-09-15T19:32:41.502Z,3.80
2017-09-15T19:35:09.779Z,3.30
2017-09-15T19:37:37.364Z,3.80
2017-09-15T19:40:04.790Z,3.87
2017-09-15T19:42:32.259Z,3.23
2017-09-15T19:44:59.783Z,3.80
2017-09-15T19:47:27.214Z,3.57
2017-09-15T19:49:54.650Z,3.50
2017-09-15T19:52:22.129Z,3.77
2017-09-15T19:54:49.647Z,3.00
2017-09-15T19:57:17.072Z,3.00
2017-09-15T19:59:44.570Z,3.20
2017-09-15T20:02:12.005Z,3.67
2017-09-15T20:04:39.455Z,3.60
2017-09-15T20:07:06.910Z,3.90
2017-09-15T20:09:34.361Z,4.20
2017-09-15T20:12:02.588Z,5.43
2017-09-15T20:14:30.067Z,3.83
2017-09-15T20:16:58.280Z,3.07
2017-09-15T20:19:25.711Z,3.87
2017-09-15T20:21:53.289Z,3.87
2017-09-15T20:24:20.797Z,3.53
2017-09-15T20:26:48.263Z,4.20
2017-09-15T20:29:15.703Z,3.30
2017-09-15T20:31:43.266Z,3.07
2017-09-15T20:34:10.735Z,3.50
2017-09-15T20:36:38.986Z,3.57
2017-09-15T20:39:06.436Z,4.40
2017-09-15T20:41:34.668Z,3.70
2017-09-15T20:44:02.104Z,5.87
2017-09-15T20:46:29.537Z,3.90
2017-09-15T20:48:56.976Z,3.50
2017-09-15T20:51:24.422Z,3.60
2017-09-15T20:53:51.867Z,3.43
2017-09-15T20:56:19.300Z,4.20
2017-09-15T20:58:46.782Z,4.53
2017-09-15T21:01:15.007Z,3.00
2017-09-15T21:03:42.483Z,4.10
2017-09-15T21:06:09.907Z,3.57
2017-09-15T21:08:37.497Z,4.50
2017-09-15T21:11:05.684Z,3.77
2017-09-15T21:13:33.128Z,3.30
2017-09-15T21:16:00.646Z,5.27
2017-09-15T21:18:28.857Z,4.13
2017-09-15T21:20:56.515Z,4.60
2017-09-15T21:23:23.964Z,3.63
2017-09-15T21:25:51.400Z,3.37
2017-09-15T21:28:20.553Z,3.97
2017-09-15T21:30:48.005Z,4.20
2017-09-15T21:33:15.421Z,5.00
2017-09-15T21:35:42.896Z,4.33
2017-09-15T21:38:10.418Z,5.20
2017-09-15T21:40:37.857Z,4.73
2017-09-15T21:43:05.372Z,5.37
2017-09-15T21:45:33.578Z,4.43
2017-09-15T21:48:01.013Z,4.17
2017-09-15T21:50:28.455Z,4.23
2017-09-15T21:52:55.887Z,4.27
2017-09-15T21:55:23.325Z,3.40
2017-09-15T21:57:50.760Z,3.90
2017-09-15T22:00:18.252Z,3.37
2017-09-15T22:02:45.688Z,3.70
2017-09-15T22:05:13.127Z,3.50
2017-09-15T22:07:40.561Z,4.70
2017-09-15T22:10:08.001Z,4.20
2017-09-15T22:12:35.432Z,4.47
2017-09-15T22:15:02.912Z,4.57
2017-09-15T22:17:30.447Z,4.40
2017-09-15T22:19:57.992Z,4.30
2017-09-15T22:22:25.453Z,4.10
2017-09-15T22:24:52.980Z,4.30
2017-09-15T22:27:20.420Z,4.60
2017-09-15T22:29:47.964Z,4.90
2017-09-15T22:32:15.397Z,5.10
2017-09-15T22:34:42.840Z,4.63
2017-09-15T22:37:10.276Z,3.53
2017-09-15T22:39:37.724Z,4.60
2017-09-15T22:42:05.156Z,4.33
2017-09-15T22:44:32.624Z,4.13
2017-09-15T22:47:00.072Z,4.60
2017-09-15T22:49:27.504Z,4.60
2017-09-15T22:51:54.944Z,5.23
2017-09-15T22:54:31.155Z,9.33
2017-09-15T22:59:32.533Z,11.10
2017-09-15T23:01:59.977Z,4.33
2017-09-15T23:04:27.409Z,4.73
2017-09-15T23:06:54.857Z,4.20
2017-09-15T23:09:22.301Z,5.13
2017-09-15T23:11:49.850Z,5.10
2017-09-15T23:14:17.288Z,4.97
2017-09-15T23:16:44.725Z,4.77
2017-09-15T23:19:12.156Z,4.47
2017-09-15T23:21:39.636Z,4.97
2017-09-15T23:24:07.072Z,4.67
2017-09-15T23:26:34.516Z,5.03
2017-09-15T23:29:02.080Z,4.70
2017-09-15T23:31:30.281Z,3.97
2017-09-15T23:33:57.720Z,4.50
2017-09-15T23:36:25.161Z,5.57
2017-09-15T23:38:52.653Z,4.87
2017-09-15T23:41:20.184Z,5.07
2017-09-15T23:43:47.617Z,4.30
2017-09-15T23:46:15.057Z,5.03
2017-09-15T23:48:42.492Z,4.60
2017-09-15T23:51:10.029Z,4.83
2017-09-15T23:53:37.448Z,4.97
2017-09-15T23:56:04.944Z,4.50
2017-09-15T23:58:32.384Z,4.10
